createdAt,value
2017-09-10T00:00:23.085Z,52.5
2017-09-10T00:01:24.524Z,52.2
2017-09-10T00:02:26.649Z,52.1
2017-09-10T00:03:28.423Z,52.6
2017-09-10T00:04:29.862Z,52.7
2017-09-10T00:05:31.304Z,52.7
2017-09-10T00:06:33.113Z,52.3
2017-09-10T00:07:34.905Z,52
2017-09-10T00:08:36.344Z,52.7
2017-09-10T00:09:38.471Z,51.9
2017-09-10T00:10:40.264Z,51.9
2017-09-10T00:11:41.721Z,52.5
2017-09-10T00:12:43.542Z,52.7
2017-09-10T00:13:45.339Z,52.1
2017-09-10T00:14:46.801Z,51.9
2017-09-10T00:15:48.929Z,52.1
2017-09-10T00:16:50.724Z,51.9
2017-09-10T00:17:52.163Z,52.5
2017-09-10T00:18:53.598Z,52.1
2017-09-10T00:19:55.392Z,52.1
2017-09-10T00:20:56.855Z,52.1
2017-09-10T00:21:58.995Z,52.1
2017-09-10T00:23:01.129Z,52.2
2017-09-10T00:24:03.257Z,52.6
2017-09-10T00:25:05.029Z,51.8
2017-09-10T00:26:05.801Z,52.2
2017-09-10T00:27:07.573Z,52.1
2017-09-10T00:28:09.029Z,51.9
2017-09-10T00:29:10.463Z,51.9
2017-09-10T00:30:11.924Z,52
2017-09-10T00:31:14.068Z,52.5
2017-09-10T00:32:15.863Z,51.9
2017-09-10T00:33:17.653Z,51.9
2017-09-10T00:34:19.781Z,52
2017-09-10T00:35:21.908Z,52
2017-09-10T00:36:23.034Z,52.5
2017-09-10T00:37:25.192Z,52
2017-09-10T00:38:26.973Z,52
2017-09-10T00:39:29.099Z,51.8
2017-09-10T00:40:31.230Z,52.7
2017-09-10T00:41:33.003Z,52
2017-09-10T00:42:35.128Z,51.9
2017-09-10T00:43:36.899Z,52
2017-09-10T00:44:39.030Z,52
2017-09-10T00:45:40.136Z,51.8
2017-09-10T00:46:42.265Z,52.5
2017-09-10T00:47:44.078Z,52.1
2017-09-10T00:48:45.537Z,52
2017-09-10T00:49:47.665Z,52.4
2017-09-10T00:50:49.793Z,52
2017-09-10T00:51:51.232Z,52
2017-09-10T00:52:52.669Z,52.1
2017-09-10T00:53:54.131Z,52.1
2017-09-10T00:54:55.234Z,52.5
2017-09-10T00:55:56.670Z,52
2017-09-10T00:56:58.798Z,52.5
2017-09-10T00:58:00.257Z,52.4
2017-09-10T00:59:02.051Z,52.1
2017-09-10T01:00:04.177Z,51.9
2017-09-10T01:01:05.970Z,52
2017-09-10T01:02:07.434Z,52.5
2017-09-10T01:03:09.564Z,52.1
2017-09-10T01:04:11.336Z,52
2017-09-10T01:05:13.129Z,52
2017-09-10T01:06:14.566Z,52.5
2017-09-10T01:07:16.024Z,52
2017-09-10T01:08:17.483Z,52
2017-09-10T01:09:19.277Z,52
2017-09-10T01:10:20.719Z,52
2017-09-10T01:11:22.846Z,51.9
2017-09-10T01:12:24.284Z,52
2017-09-10T01:13:26.077Z,52.4
2017-09-10T01:14:27.871Z,52
2017-09-10T01:15:30.001Z,52.4
2017-09-10T01:16:31.772Z,51.9
2017-09-10T01:17:33.212Z,52
2017-09-10T01:18:34.986Z,52
2017-09-10T01:19:36.774Z,52
2017-09-10T01:20:38.567Z,52.4
2017-09-10T01:21:40.024Z,52
2017-09-10T01:22:42.152Z,51.9
2017-09-10T01:23:43.922Z,52
2017-09-10T01:24:45.716Z,52
2017-09-10T01:25:47.495Z,51.9
2017-09-10T01:26:48.923Z,52
2017-09-10T01:27:50.718Z,52
2017-09-10T01:28:52.512Z,52
2017-09-10T01:29:54.314Z,52.5
2017-09-10T01:30:56.440Z,52.1
2017-09-10T01:31:58.569Z,52
2017-09-10T01:33:00.004Z,52
2017-09-10T01:34:01.464Z,52.1
2017-09-10T01:35:02.921Z,51.9
2017-09-10T01:36:04.379Z,52
2017-09-10T01:37:05.480Z,52
2017-09-10T01:38:07.278Z,52.5
2017-09-10T01:39:09.071Z,52.4
2017-09-10T01:40:10.510Z,52.1
2017-09-10T01:41:12.643Z,52
2017-09-10T01:42:14.491Z,52.1
2017-09-10T01:43:16.261Z,52
2017-09-10T01:44:18.392Z,51.9
2017-09-10T01:45:20.183Z,52.6
2017-09-10T01:46:21.660Z,52.6
2017-09-10T01:47:23.457Z,52.4
2017-09-10T01:48:24.949Z,52
2017-09-10T01:49:26.352Z,52.1
2017-09-10T01:50:28.482Z,52.4
2017-09-10T01:51:30.278Z,52
2017-09-10T01:52:32.074Z,52
2017-09-10T01:53:33.869Z,52.5
2017-09-10T01:54:35.308Z,52
2017-09-10T01:55:36.766Z,52
2017-09-10T01:56:38.893Z,52
2017-09-10T01:57:40.685Z,52.5
2017-09-10T01:58:42.150Z,52
2017-09-10T01:59:43.921Z,52.5
2017-09-10T02:00:45.370Z,52
2017-09-10T02:01:47.162Z,52
2017-09-10T02:02:48.606Z,52
2017-09-10T02:03:50.400Z,52
2017-09-10T02:04:52.188Z,52.4
2017-09-10T02:05:53.981Z,52
2017-09-10T02:06:56.107Z,52
2017-09-10T02:07:57.899Z,52.4
2017-09-10T02:08:59.695Z,52.1
2017-09-10T02:10:01.154Z,52.4
2017-09-10T02:11:02.592Z,52
2017-09-10T02:12:04.719Z,52.1
2017-09-10T02:13:06.159Z,52.4
2017-09-10T02:14:08.286Z,52.1
2017-09-10T02:15:09.777Z,52.3
2017-09-10T02:16:11.905Z,52.1
2017-09-10T02:17:13.700Z,52.4
2017-09-10T02:18:14.799Z,52.7
2017-09-10T02:19:15.926Z,52.6
2017-09-10T02:20:17.721Z,52.3
2017-09-10T02:21:19.851Z,52
2017-09-10T02:22:21.978Z,52.4
2017-09-10T02:23:23.773Z,52.6
2017-09-10T02:24:25.567Z,52.1
2017-09-10T02:25:27.360Z,52.5
2017-09-10T02:26:29.154Z,52.2
2017-09-10T02:27:30.950Z,52.6
2017-09-10T02:28:32.723Z,52.2
2017-09-10T02:29:34.500Z,52.6
2017-09-10T02:30:36.625Z,52.1
2017-09-10T02:31:38.418Z,52.2
2017-09-10T02:32:39.876Z,52.6
2017-09-10T02:33:41.671Z,52.2
2017-09-10T02:34:43.128Z,52.1
2017-09-10T02:35:44.920Z,52.1
2017-09-10T02:36:47.051Z,52.1
2017-09-10T02:37:48.543Z,52.1
2017-09-10T02:38:49.975Z,52.6
2017-09-10T02:39:51.413Z,52.4
2017-09-10T02:40:53.182Z,52.2
2017-09-10T02:41:55.310Z,52.2
2017-09-10T02:42:57.438Z,52.1
2017-09-10T02:43:59.232Z,52.1
2017-09-10T02:45:01.004Z,52.1
2017-09-10T02:46:02.777Z,52.1
2017-09-10T02:47:04.236Z,52.1
2017-09-10T02:48:06.032Z,52.1
2017-09-10T02:49:07.467Z,52.1
2017-09-10T02:50:09.599Z,52.2
2017-09-10T02:51:11.037Z,52.1
2017-09-10T02:52:12.811Z,52.5
2017-09-10T02:53:14.937Z,52.1
2017-09-10T02:54:16.753Z,52.1
2017-09-10T02:55:17.894Z,52.1
2017-09-10T02:56:19.670Z,52.1
2017-09-10T02:57:21.464Z,52.1
2017-09-10T02:58:23.593Z,52.1
2017-09-10T02:59:25.031Z,52.5
2017-09-10T03:00:26.826Z,52.3
2017-09-10T03:01:28.956Z,52
2017-09-10T03:02:30.420Z,52
2017-09-10T03:03:32.231Z,52.1
2017-09-10T03:04:34.358Z,52.1
2017-09-10T03:05:36.151Z,52.1
2017-09-10T03:06:37.262Z,52.1
2017-09-10T03:07:39.048Z,52.1
2017-09-10T03:08:40.516Z,52.1
2017-09-10T03:09:42.306Z,52.1
2017-09-10T03:10:43.744Z,52.1
2017-09-10T03:11:45.549Z,52.1
2017-09-10T03:12:47.697Z,52.1
2017-09-10T03:13:49.827Z,52.1
2017-09-10T03:14:51.619Z,52.1
2017-09-10T03:15:53.391Z,52.1
2017-09-10T03:16:55.184Z,52.4
2017-09-10T03:17:56.957Z,52.1
2017-09-10T03:18:58.729Z,52
2017-09-10T03:20:00.188Z,52.1
2017-09-10T03:21:01.984Z,52.1
2017-09-10T03:22:03.421Z,52.4
2017-09-10T03:23:05.195Z,52.1
2017-09-10T03:24:06.632Z,52.1
2017-09-10T03:25:08.761Z,52.1
2017-09-10T03:26:09.864Z,52.5
2017-09-10T03:27:11.658Z,52.3
2017-09-10T03:28:13.115Z,52.1
2017-09-10T03:29:14.912Z,52.1
2017-09-10T03:30:16.708Z,52.1
2017-09-10T03:31:18.505Z,52.1
2017-09-10T03:32:20.299Z,52.1
2017-09-10T03:33:22.113Z,52.1
2017-09-10T03:34:23.903Z,52.1
2017-09-10T03:35:25.698Z,52.1
2017-09-10T03:36:27.841Z,52.1
2017-09-10T03:37:29.966Z,52.1
2017-09-10T03:38:32.096Z,52.1
2017-09-10T03:39:33.887Z,52.1
2017-09-10T03:40:36.030Z,52.1
2017-09-10T03:41:37.821Z,52.5
2017-09-10T03:42:39.949Z,52.1
2017-09-10T03:43:41.740Z,52.1
2017-09-10T03:44:42.846Z,52.1
2017-09-10T03:45:44.649Z,52.1
2017-09-10T03:46:46.446Z,52.1
2017-09-10T03:47:48.241Z,52.1
2017-09-10T03:48:50.368Z,52.1
2017-09-10T03:49:52.164Z,52.1
2017-09-10T03:50:53.983Z,52.1
2017-09-10T03:51:55.420Z,52.1
2017-09-10T03:52:56.859Z,52.1
2017-09-10T03:53:58.654Z,52.1
2017-09-10T03:55:00.449Z,52.3
2017-09-10T03:56:02.576Z,52.3
2017-09-10T03:57:04.368Z,52.1
2017-09-10T03:58:06.499Z,52.1
2017-09-10T03:59:08.628Z,52.1
2017-09-10T04:00:10.422Z,52.1
2017-09-10T04:01:12.223Z,52.3
2017-09-10T04:02:14.004Z,52.1
2017-09-10T04:03:16.142Z,52.1
2017-09-10T04:04:17.598Z,52.1
2017-09-10T04:05:19.371Z,52.1
2017-09-10T04:06:20.833Z,52.1
2017-09-10T04:07:22.647Z,52.4
2017-09-10T04:08:24.775Z,52.1
2017-09-10T04:09:26.233Z,52.1
2017-09-10T04:10:27.673Z,52.1
2017-09-10T04:11:29.467Z,52.1
2017-09-10T04:12:30.907Z,52.1
2017-09-10T04:13:33.037Z,52.1
2017-09-10T04:14:34.497Z,52.1
2017-09-10T04:15:36.627Z,52.1
2017-09-10T04:16:38.063Z,52.1
2017-09-10T04:17:39.838Z,52.1
2017-09-10T04:18:41.630Z,52.1
2017-09-10T04:19:43.070Z,52.1
2017-09-10T04:20:44.862Z,52.2
2017-09-10T04:21:46.636Z,52.1
2017-09-10T04:22:48.765Z,52.1
2017-09-10T04:23:50.204Z,52.1
2017-09-10T04:24:52.001Z,52.1
2017-09-10T04:25:54.136Z,52.1
2017-09-10T04:26:55.577Z,52.1
2017-09-10T04:27:57.368Z,52.1
2017-09-10T04:28:59.497Z,52.1
2017-09-10T04:30:00.957Z,52.1
2017-09-10T04:31:02.751Z,52.1
2017-09-10T04:32:04.878Z,52.1
2017-09-10T04:33:06.317Z,52.2
2017-09-10T04:34:08.113Z,52.1
2017-09-10T04:35:09.905Z,52.1
2017-09-10T04:36:11.699Z,52.1
2017-09-10T04:37:13.492Z,52.1
2017-09-10T04:38:14.596Z,52.1
2017-09-10T04:39:16.724Z,52.1
2017-09-10T04:40:18.518Z,52.1
2017-09-10T04:41:20.647Z,52.1
2017-09-10T04:42:22.776Z,52.1
2017-09-10T04:43:24.214Z,52.1
2017-09-10T04:44:26.010Z,52
2017-09-10T04:45:27.472Z,52.1
2017-09-10T04:46:28.916Z,52.1
2017-09-10T04:47:30.370Z,52.1
2017-09-10T04:48:31.477Z,52.5
2017-09-10T04:49:33.273Z,52.1
2017-09-10T04:50:35.072Z,52.5
2017-09-10T04:51:36.533Z,52.1
2017-09-10T04:52:38.309Z,52.1
2017-09-10T04:53:39.417Z,52.1
2017-09-10T04:54:40.526Z,52.1
2017-09-10T04:55:41.965Z,52.1
2017-09-10T04:56:43.741Z,52.1
2017-09-10T04:57:45.182Z,52.1
2017-09-10T04:58:46.640Z,52.1
2017-09-10T04:59:48.770Z,52.6
2017-09-10T05:00:50.901Z,52.1
2017-09-10T05:01:53.031Z,52.6
2017-09-10T05:02:54.804Z,52.6
2017-09-10T05:03:55.909Z,52.1
2017-09-10T05:04:57.685Z,52.1
2017-09-10T05:05:59.148Z,52
2017-09-10T05:07:00.921Z,52
2017-09-10T05:08:02.716Z,52.4
2017-09-10T05:09:04.511Z,52.1
2017-09-10T05:10:05.618Z,52.1
2017-09-10T05:11:07.753Z,52.3
2017-09-10T05:12:09.205Z,52.1
2017-09-10T05:13:10.998Z,52.1
2017-09-10T05:14:13.126Z,52
2017-09-10T05:15:14.584Z,52.1
2017-09-10T05:16:16.718Z,52.5
2017-09-10T05:17:18.510Z,52.1
2017-09-10T05:18:20.643Z,52.1
2017-09-10T05:19:21.764Z,52.1
2017-09-10T05:20:23.227Z,52.1
2017-09-10T05:21:25.018Z,52.1
2017-09-10T05:22:26.456Z,52.1
2017-09-10T05:23:27.917Z,52.1
2017-09-10T05:24:29.025Z,52
2017-09-10T05:25:30.483Z,52
2017-09-10T05:26:32.280Z,52
2017-09-10T05:27:33.434Z,52.6
2017-09-10T05:28:35.229Z,52
2017-09-10T05:29:37.022Z,52
2017-09-10T05:30:38.820Z,52.4
2017-09-10T05:31:40.283Z,51.9
2017-09-10T05:32:42.054Z,52.7
2017-09-10T05:33:44.185Z,52
2017-09-10T05:34:46.314Z,52
2017-09-10T05:35:48.113Z,52
2017-09-10T05:36:49.552Z,52
2017-09-10T05:37:51.115Z,52
2017-09-10T05:38:53.240Z,52.1
2017-09-10T05:39:54.344Z,52
2017-09-10T05:40:56.137Z,52
2017-09-10T05:41:57.936Z,52
2017-09-10T05:42:58.703Z,51.9
2017-09-10T05:44:00.498Z,52
2017-09-10T05:45:02.295Z,52
2017-09-10T05:46:04.099Z,52
2017-09-10T05:47:06.226Z,51.9
2017-09-10T05:48:07.688Z,52
2017-09-10T05:49:09.481Z,52
2017-09-10T05:50:10.927Z,52
2017-09-10T05:51:12.701Z,52.3
2017-09-10T05:52:14.471Z,52.3
2017-09-10T05:53:15.928Z,51.8
2017-09-10T05:54:17.728Z,52.1
2017-09-10T05:55:18.832Z,51.9
2017-09-10T05:56:20.291Z,52.1
2017-09-10T05:57:21.749Z,51.9
2017-09-10T05:58:23.528Z,52
2017-09-10T05:59:24.630Z,52.1
2017-09-10T06:00:26.425Z,52.1
2017-09-10T06:01:28.216Z,52.2
2017-09-10T06:02:29.658Z,52.1
2017-09-10T06:03:31.450Z,52.1
2017-09-10T06:04:33.578Z,52.1
2017-09-10T06:05:34.687Z,52.1
2017-09-10T06:06:36.466Z,51.9
2017-09-10T06:07:38.586Z,52
2017-09-10T06:08:40.358Z,51.9
2017-09-10T06:09:42.496Z,51.8
2017-09-10T06:10:44.309Z,52.1
2017-09-10T06:11:45.740Z,51.9
2017-09-10T06:12:47.536Z,51.8
2017-09-10T06:13:48.639Z,52.2
2017-09-10T06:14:50.767Z,51.8
2017-09-10T06:15:52.560Z,51.8
2017-09-10T06:16:53.336Z,51.8
2017-09-10T06:17:55.109Z,51.8
2017-09-10T06:18:56.544Z,51.9
2017-09-10T06:19:58.007Z,51.9
2017-09-10T06:20:59.114Z,51.9
2017-09-10T06:22:00.886Z,51.9
2017-09-10T06:23:02.676Z,52.2
2017-09-10T06:24:04.473Z,51.9
2017-09-10T06:25:05.915Z,52
2017-09-10T06:26:07.718Z,51.7
2017-09-10T06:27:09.494Z,52.2
2017-09-10T06:28:10.599Z,52
2017-09-10T06:29:12.391Z,52.1
2017-09-10T06:30:14.520Z,51.9
2017-09-10T06:31:16.299Z,51.9
2017-09-10T06:32:18.427Z,52
2017-09-10T06:33:20.559Z,51.7
2017-09-10T06:34:21.683Z,52
2017-09-10T06:35:23.146Z,51.7
2017-09-10T06:36:25.281Z,51.9
2017-09-10T06:37:27.071Z,51.7
2017-09-10T06:38:29.200Z,51.7
2017-09-10T06:39:31.329Z,51.7
2017-09-10T06:40:32.773Z,51.7
2017-09-10T06:41:34.568Z,51.8
2017-09-10T06:42:36.693Z,51.8
2017-09-10T06:43:37.796Z,51.7
2017-09-10T06:44:39.591Z,51.8
2017-09-10T06:45:41.050Z,51.8
2017-09-10T06:46:43.182Z,51.8
2017-09-10T06:47:44.305Z,51.7
2017-09-10T06:48:46.107Z,51.7
2017-09-10T06:49:47.547Z,51.7
2017-09-10T06:50:49.674Z,51.8
2017-09-10T06:51:51.468Z,51.6
2017-09-10T06:52:53.242Z,51.6
2017-09-10T06:53:55.375Z,51.5
2017-09-10T06:54:56.836Z,51.9
2017-09-10T06:55:58.627Z,51.7
2017-09-10T06:57:00.097Z,52
2017-09-10T06:58:01.898Z,51.6
2017-09-10T06:59:03.354Z,51.8
2017-09-10T07:00:04.815Z,51.8
2017-09-10T07:01:06.252Z,52.1
2017-09-10T07:02:08.026Z,51.7
2017-09-10T07:03:09.818Z,52.1
2017-09-10T07:04:11.945Z,52.1
2017-09-10T07:05:13.738Z,51.7
2017-09-10T07:06:15.870Z,51.8
2017-09-10T07:07:17.642Z,51.7
2017-09-10T07:08:19.432Z,51.7
2017-09-10T07:09:21.227Z,51.6
2017-09-10T07:10:22.739Z,51.8
2017-09-10T07:11:24.203Z,51.8
2017-09-10T07:12:26.334Z,51.8
2017-09-10T07:13:28.106Z,52
2017-09-10T07:14:29.902Z,52.2
2017-09-10T07:15:32.038Z,52
2017-09-10T07:16:33.512Z,52
2017-09-10T07:17:35.642Z,51.8
2017-09-10T07:18:37.435Z,51.7
2017-09-10T07:19:38.872Z,51.8
2017-09-10T07:20:40.647Z,51.8
2017-09-10T07:21:42.775Z,51.7
2017-09-10T07:22:44.568Z,51.7
2017-09-10T07:23:46.005Z,51.7
2017-09-10T07:24:48.135Z,51.9
2017-09-10T07:25:49.927Z,51.9
2017-09-10T07:26:52.059Z,51.5
2017-09-10T07:27:53.498Z,51.8
2017-09-10T07:28:54.959Z,51.4
2017-09-10T07:29:56.760Z,51.4
2017-09-10T07:30:58.272Z,51.4
2017-09-10T07:31:59.714Z,51.9
2017-09-10T07:33:01.515Z,51.8
2017-09-10T07:34:03.646Z,51.5
2017-09-10T07:35:05.449Z,51.5
2017-09-10T07:36:07.322Z,51.4
2017-09-10T07:37:09.094Z,51.5
2017-09-10T07:38:10.563Z,51.4
2017-09-10T07:39:12.359Z,51.4
2017-09-10T07:40:14.154Z,51.5
2017-09-10T07:41:15.596Z,51.3
2017-09-10T07:42:17.724Z,51.4
2017-09-10T07:43:19.525Z,51.5
2017-09-10T07:44:21.352Z,51.8
2017-09-10T07:45:22.794Z,51.4
2017-09-10T07:46:24.254Z,51.4
2017-09-10T07:47:26.058Z,51.6
2017-09-10T07:48:28.188Z,51.7
2017-09-10T07:49:29.652Z,51.3
2017-09-10T07:50:31.783Z,51.3
2017-09-10T07:51:33.704Z,51.5
2017-09-10T07:52:35.168Z,51.4
2017-09-10T07:53:36.631Z,51.7
2017-09-10T07:54:38.096Z,51.3
2017-09-10T07:55:39.871Z,51.3
2017-09-10T07:56:41.668Z,51.2
2017-09-10T07:57:43.811Z,51.2
2017-09-10T07:58:44.978Z,51.2
2017-09-10T07:59:46.049Z,51.5
2017-09-10T08:00:48.178Z,51.1
2017-09-10T08:01:49.976Z,51.2
2017-09-10T08:02:51.752Z,51.4
2017-09-10T08:03:53.193Z,51.1
2017-09-10T08:04:54.971Z,51.3
2017-09-10T08:05:56.771Z,51.3
2017-09-10T08:06:58.900Z,51.3
2017-09-10T08:08:01.028Z,51.3
2017-09-10T08:09:02.468Z,51.2
2017-09-10T08:10:04.597Z,51.5
2017-09-10T08:11:06.728Z,51.6
2017-09-10T08:12:08.522Z,51.6
2017-09-10T08:13:10.651Z,51.6
2017-09-10T08:14:12.093Z,50.9
2017-09-10T08:15:13.555Z,50.9
2017-09-10T08:16:15.353Z,50.8
2017-09-10T08:17:17.146Z,51.5
2017-09-10T08:18:18.589Z,51.4
2017-09-10T08:19:20.384Z,50.9
2017-09-10T08:20:22.179Z,50.8
2017-09-10T08:21:23.975Z,51.5
2017-09-10T08:22:25.535Z,50.8
2017-09-10T08:23:26.997Z,50.8
2017-09-10T08:24:28.455Z,50.9
2017-09-10T08:25:30.235Z,50.9
2017-09-10T08:26:31.671Z,50.9
2017-09-10T08:27:33.446Z,51.3
2017-09-10T08:28:35.244Z,51
2017-09-10T08:29:37.371Z,51
2017-09-10T08:30:39.163Z,51
2017-09-10T08:31:40.603Z,51.3
2017-09-10T08:32:42.416Z,51
2017-09-10T08:33:44.230Z,51.2
2017-09-10T08:34:46.359Z,51.2
2017-09-10T08:35:47.798Z,50.8
2017-09-10T08:36:49.592Z,51.2
2017-09-10T08:37:51.033Z,50.8
2017-09-10T08:38:52.824Z,51
2017-09-10T08:39:54.957Z,50.8
2017-09-10T08:40:56.061Z,50.7
2017-09-10T08:41:58.191Z,50.8
2017-09-10T08:42:59.652Z,51
2017-09-10T08:44:01.095Z,50.7
2017-09-10T08:45:02.556Z,50.7
2017-09-10T08:46:03.994Z,50.7
2017-09-10T08:47:06.125Z,51
2017-09-10T08:48:07.922Z,50.7
2017-09-10T08:49:09.384Z,50.9
2017-09-10T08:50:11.163Z,50.8
2017-09-10T08:51:12.946Z,50.7
2017-09-10T08:52:14.736Z,51.2
2017-09-10T08:53:16.177Z,50.8
2017-09-10T08:54:18.300Z,51.2
2017-09-10T08:55:20.100Z,50.7
2017-09-10T08:56:21.537Z,51.1
2017-09-10T08:57:23.334Z,50.7
2017-09-10T08:58:25.174Z,50.6
2017-09-10T08:59:26.973Z,50.6
2017-09-10T09:00:28.435Z,50.6
2017-09-10T09:01:30.232Z,50.7
2017-09-10T09:02:32.025Z,50.7
2017-09-10T09:03:33.487Z,50.7
2017-09-10T09:04:35.261Z,50.6
2017-09-10T09:05:36.722Z,50.7
2017-09-10T09:06:37.825Z,50.8
2017-09-10T09:07:39.295Z,50.7
2017-09-10T09:08:41.425Z,50.9
2017-09-10T09:09:42.889Z,51
2017-09-10T09:10:44.324Z,50.7
2017-09-10T09:11:45.783Z,50.8
2017-09-10T09:12:47.914Z,50.5
2017-09-10T09:13:49.763Z,50.6
2017-09-10T09:14:51.559Z,50.6
2017-09-10T09:15:53.354Z,50.5
2017-09-10T09:16:55.156Z,50.7
2017-09-10T09:17:56.613Z,50.5
2017-09-10T09:18:58.051Z,50.7
2017-09-10T09:20:00.202Z,50.5
2017-09-10T09:21:02.004Z,50.5
2017-09-10T09:22:03.794Z,50.4
2017-09-10T09:23:05.568Z,50.5
2017-09-10T09:24:07.362Z,50.4
2017-09-10T09:25:08.467Z,50.3
2017-09-10T09:26:10.245Z,50.4
2017-09-10T09:27:12.044Z,50.8
2017-09-10T09:28:13.841Z,50.2
2017-09-10T09:29:15.742Z,50.2
2017-09-10T09:30:17.209Z,50.3
2017-09-10T09:31:18.646Z,50.1
2017-09-10T09:32:20.445Z,50.2
2017-09-10T09:33:21.889Z,50.4
2017-09-10T09:34:23.666Z,51
2017-09-10T09:35:25.463Z,50.3
2017-09-10T09:36:27.589Z,50.4
2017-09-10T09:37:29.061Z,51
2017-09-10T09:38:31.186Z,50.3
2017-09-10T09:39:32.629Z,50.9
2017-09-10T09:40:34.751Z,50.5
2017-09-10T09:41:35.882Z,50.8
2017-09-10T09:42:37.322Z,50.2
2017-09-10T09:43:39.457Z,50.3
2017-09-10T09:44:40.901Z,50.4
2017-09-10T09:45:42.700Z,50.5
2017-09-10T09:46:44.493Z,50.3
2017-09-10T09:47:46.288Z,50.8
2017-09-10T09:48:47.413Z,50.4
2017-09-10T09:49:48.876Z,50.6
2017-09-10T09:50:51.010Z,50.4
2017-09-10T09:51:52.805Z,50.5
2017-09-10T09:52:54.933Z,50.6
2017-09-10T09:53:57.070Z,50.1
2017-09-10T09:54:59.209Z,50.1
2017-09-10T09:56:00.315Z,50.3
2017-09-10T09:57:02.442Z,50.4
2017-09-10T09:58:04.575Z,50.3
2017-09-10T09:59:06.703Z,50.5
2017-09-10T10:00:08.142Z,50.4
2017-09-10T10:01:09.937Z,50.5
2017-09-10T10:02:11.736Z,50.5
2017-09-10T10:03:13.535Z,50.5
2017-09-10T10:04:15.331Z,50.5
2017-09-10T10:05:17.131Z,50.7
2017-09-10T10:06:18.926Z,50.4
2017-09-10T10:07:20.390Z,50.3
2017-09-10T10:08:21.826Z,50.5
2017-09-10T10:09:23.966Z,50.2
2017-09-10T10:10:25.432Z,50.4
2017-09-10T10:11:27.227Z,50.4
2017-09-10T10:12:29.043Z,50.5
2017-09-10T10:13:30.503Z,50.5
2017-09-10T10:14:32.299Z,50.3
2017-09-10T10:15:34.095Z,50.3
2017-09-10T10:16:35.889Z,50.3
2017-09-10T10:17:37.683Z,50.2
2017-09-10T10:18:39.123Z,50.3
2017-09-10T10:19:40.898Z,50.4
2017-09-10T10:20:43.033Z,50.3
2017-09-10T10:21:44.492Z,50.3
2017-09-10T10:22:46.289Z,50
2017-09-10T10:23:48.088Z,50.1
2017-09-10T10:24:49.192Z,50.1
2017-09-10T10:25:51.318Z,50.2
2017-09-10T10:26:52.760Z,50.2
2017-09-10T10:27:54.557Z,50
2017-09-10T10:28:56.686Z,49.8
2017-09-10T10:29:58.485Z,50
2017-09-10T10:31:00.622Z,49.8
2017-09-10T10:32:02.414Z,50
2017-09-10T10:33:04.210Z,50.1
2017-09-10T10:34:06.339Z,50
2017-09-10T10:35:07.779Z,50
2017-09-10T10:36:09.914Z,49.9
2017-09-10T10:37:12.044Z,49.9
2017-09-10T10:38:13.838Z,50.1
2017-09-10T10:39:15.608Z,50.2
2017-09-10T10:40:17.404Z,50.3
2017-09-10T10:41:19.536Z,50.3
2017-09-10T10:42:21.006Z,50.3
2017-09-10T10:43:22.800Z,49.8
2017-09-10T10:44:24.595Z,49.8
2017-09-10T10:45:26.031Z,50.2
2017-09-10T10:46:27.927Z,50.2
2017-09-10T10:47:29.366Z,50.2
2017-09-10T10:48:31.158Z,50.3
2017-09-10T10:49:32.622Z,50.2
2017-09-10T10:50:34.087Z,50.5
2017-09-10T10:51:35.190Z,49.8
2017-09-10T10:52:36.629Z,49.7
2017-09-10T10:53:37.736Z,49.6
2017-09-10T10:54:39.507Z,49.6
2017-09-10T10:55:41.305Z,50.5
2017-09-10T10:56:43.106Z,50
2017-09-10T10:57:44.882Z,50.2
2017-09-10T10:58:46.347Z,50.2
2017-09-10T10:59:47.813Z,50.3
2017-09-10T11:00:49.587Z,49.9
2017-09-10T11:01:51.050Z,50.1
2017-09-10T11:02:52.849Z,50
2017-09-10T11:03:54.645Z,49.9
2017-09-10T11:04:56.083Z,50.1
2017-09-10T11:05:57.550Z,50.1
2017-09-10T11:06:59.678Z,50.1
2017-09-10T11:08:01.119Z,49.8
2017-09-10T11:09:02.920Z,49.8
2017-09-10T11:10:04.718Z,50.2
2017-09-10T11:11:06.524Z,50
2017-09-10T11:12:07.341Z,50.1
2017-09-10T11:13:09.137Z,50.1
2017-09-10T11:14:10.933Z,50.2
2017-09-10T11:15:12.731Z,50.3
2017-09-10T11:16:14.507Z,50.2
2017-09-10T11:17:16.643Z,49.7
2017-09-10T11:18:18.775Z,49.9
2017-09-10T11:19:20.570Z,49.6
2017-09-10T11:20:22.371Z,49.8
2017-09-10T11:21:24.502Z,49.8
2017-09-10T11:22:25.967Z,49.9
2017-09-10T11:23:27.767Z,49.9
2017-09-10T11:24:29.544Z,49.8
2017-09-10T11:25:31.317Z,49.9
2017-09-10T11:26:32.782Z,49.8
2017-09-10T11:27:34.222Z,49.8
2017-09-10T11:28:36.019Z,49.9
2017-09-10T11:29:38.148Z,49.7
2017-09-10T11:30:39.594Z,49.7
2017-09-10T11:31:41.395Z,49.8
2017-09-10T11:32:43.289Z,49.7
2017-09-10T11:33:44.724Z,49.7
2017-09-10T11:34:46.170Z,49.8
2017-09-10T11:35:47.971Z,50
2017-09-10T11:36:49.411Z,49.8
2017-09-10T11:37:51.207Z,50.1
2017-09-10T11:38:52.648Z,49.8
2017-09-10T11:39:54.444Z,50
2017-09-10T11:40:56.576Z,49.8
2017-09-10T11:41:58.375Z,49.7
2017-09-10T11:43:00.150Z,49.7
2017-09-10T11:44:01.257Z,49.7
2017-09-10T11:45:03.390Z,50
2017-09-10T11:46:04.829Z,49.7
2017-09-10T11:47:06.625Z,49.8
2017-09-10T11:48:08.418Z,49.8
2017-09-10T11:49:10.552Z,49.8
2017-09-10T11:50:12.347Z,49.7
2017-09-10T11:51:13.454Z,49.7
2017-09-10T11:52:14.894Z,49.7
2017-09-10T11:53:16.023Z,49.8
2017-09-10T11:54:18.155Z,49.7
2017-09-10T11:55:19.623Z,50
2017-09-10T11:56:21.753Z,49.9
2017-09-10T11:57:23.548Z,49.9
2017-09-10T11:58:25.343Z,50.1
2017-09-10T11:59:27.141Z,49.9
2017-09-10T12:00:28.938Z,50.1
2017-09-10T12:01:30.375Z,49.8
2017-09-10T12:02:31.819Z,49.8
2017-09-10T12:03:33.618Z,49.9
2017-09-10T12:04:35.390Z,50.2
2017-09-10T12:05:37.185Z,49.8
2017-09-10T12:06:38.644Z,49.9
2017-09-10T12:07:40.776Z,49.8
2017-09-10T12:08:42.571Z,50
2017-09-10T12:09:44.369Z,50
2017-09-10T12:10:45.821Z,50
2017-09-10T12:11:47.618Z,49.9
2017-09-10T12:12:49.062Z,49.6
2017-09-10T12:13:50.521Z,49.7
2017-09-10T12:14:52.648Z,49.5
2017-09-10T12:15:53.760Z,49.8
2017-09-10T12:16:55.556Z,49.7
2017-09-10T12:17:57.353Z,49.5
2017-09-10T12:18:59.150Z,49.6
2017-09-10T12:20:00.267Z,49.6
2017-09-10T12:21:01.368Z,49.7
2017-09-10T12:22:02.828Z,49.6
2017-09-10T12:23:04.265Z,49.7
2017-09-10T12:24:05.729Z,49.5
2017-09-10T12:25:06.830Z,49.6
2017-09-10T12:26:08.970Z,49.7
2017-09-10T12:27:10.431Z,49.7
2017-09-10T12:28:11.539Z,49.6
2017-09-10T12:29:13.318Z,49.6
2017-09-10T12:30:15.108Z,49.8
2017-09-10T12:31:16.904Z,49.6
2017-09-10T12:32:19.041Z,49.6
2017-09-10T12:33:20.832Z,49.6
2017-09-10T12:34:22.631Z,50
2017-09-10T12:35:24.405Z,49.9
2017-09-10T12:36:26.201Z,49.6
2017-09-10T12:37:27.304Z,49.4
2017-09-10T12:38:29.080Z,49.7
2017-09-10T12:39:30.880Z,49.7
2017-09-10T12:40:32.320Z,49.6
2017-09-10T12:41:34.116Z,49.6
2017-09-10T12:42:35.915Z,49.7
2017-09-10T12:43:38.044Z,49.8
2017-09-10T12:44:39.611Z,49.6
2017-09-10T12:45:41.410Z,49.6
2017-09-10T12:46:43.540Z,49.6
2017-09-10T12:47:45.340Z,49.9
2017-09-10T12:48:46.775Z,49.6
2017-09-10T12:49:48.267Z,49.4
2017-09-10T12:50:49.727Z,49.8
2017-09-10T12:51:51.861Z,49.7
2017-09-10T12:52:52.965Z,49.5
2017-09-10T12:53:54.739Z,49.6
2017-09-10T12:54:56.533Z,49.6
2017-09-10T12:55:58.664Z,49.8
2017-09-10T12:57:00.104Z,49.2
2017-09-10T12:58:01.211Z,49.3
2017-09-10T12:59:03.005Z,49.3
2017-09-10T13:00:04.517Z,49.2
2017-09-10T13:01:05.956Z,49.4
2017-09-10T13:02:07.397Z,49.3
2017-09-10T13:03:09.193Z,49.3
2017-09-10T13:04:10.628Z,49.2
2017-09-10T13:05:12.091Z,49.2
2017-09-10T13:06:14.219Z,49.3
2017-09-10T13:07:15.993Z,49.3
2017-09-10T13:08:17.792Z,49.6
2017-09-10T13:09:19.257Z,49.4
2017-09-10T13:10:20.694Z,49.3
2017-09-10T13:11:22.473Z,49.3
2017-09-10T13:12:24.604Z,49.3
2017-09-10T13:13:26.403Z,49.3
2017-09-10T13:14:27.845Z,49.3
2017-09-10T13:15:29.645Z,49.3
2017-09-10T13:16:31.776Z,49.4
2017-09-10T13:17:33.223Z,49.4
2017-09-10T13:18:35.351Z,49.1
2017-09-10T13:19:37.125Z,49.3
2017-09-10T13:20:38.917Z,49.3
2017-09-10T13:21:40.716Z,49.2
2017-09-10T13:22:42.512Z,49.2
2017-09-10T13:23:43.622Z,49.2
2017-09-10T13:24:45.423Z,49.4
2017-09-10T13:25:47.217Z,49.6
2017-09-10T13:26:48.343Z,49.3
2017-09-10T13:27:50.475Z,49.3
2017-09-10T13:28:52.604Z,49.3
2017-09-10T13:29:54.738Z,49.3
2017-09-10T13:30:56.197Z,49.5
2017-09-10T13:31:57.663Z,49.3
2017-09-10T13:32:59.103Z,49.3
2017-09-10T13:34:00.546Z,49.3
2017-09-10T13:35:02.344Z,49.3
2017-09-10T13:36:03.448Z,49.5
2017-09-10T13:37:05.245Z,49.3
2017-09-10T13:38:07.373Z,49.4
2017-09-10T13:39:08.819Z,49.2
2017-09-10T13:40:10.945Z,49.6
2017-09-10T13:41:12.049Z,49.6
2017-09-10T13:42:13.850Z,49.3
2017-09-10T13:43:15.288Z,49.3
2017-09-10T13:44:16.751Z,49.6
2017-09-10T13:45:18.883Z,49.4
2017-09-10T13:46:20.346Z,49.3
2017-09-10T13:47:22.145Z,49.2
2017-09-10T13:48:24.275Z,49.2
2017-09-10T13:49:26.403Z,49.2